createdAt,value
2024-02-26T00:01:24.232Z,11.85
2024-02-26T00:03:26.198Z,11.87
2024-02-26T00:05:29.424Z,11.91
2024-02-26T00:07:31.140Z,11.92
2024-02-26T00:09:32.797Z,11.95
2024-02-26T00:11:34.586Z,11.95
2024-02-26T00:13:36.843Z,11.92
2024-02-26T00:15:38.546Z,11.91
2024-02-26T00:17:40.357Z,11.93
2024-02-26T00:19:42.290Z,11.94
2024-02-26T00:21:45.383Z,11.96
2024-02-26T00:23:47.098Z,11.98
2024-02-26T00:25:48.960Z,11.99
2024-02-26T00:27:50.674Z,11.96
2024-02-26T00:29:52.405Z,11.95
2024-02-26T00:31:54.254Z,11.94
2024-02-26T00:33:56.150Z,11.97
2024-02-26T00:35:57.939Z,11.99
2024-02-26T00:38:01.139Z,11.99
2024-02-26T00:40:02.845Z,11.99
2024-02-26T00:42:04.934Z,12.00
2024-02-26T00:44:06.669Z,11.96
2024-02-26T00:46:08.348Z,11.92
2024-02-26T00:48:11.324Z,11.88
2024-02-26T00:50:13.080Z,11.84
2024-02-26T00:52:14.755Z,11.79
2024-02-26T00:54:18.022Z,11.78
2024-02-26T00:56:19.811Z,11.76
2024-02-26T00:58:21.576Z,11.77
2024-02-26T01:00:23.399Z,11.76
2024-02-26T01:02:25.214Z,11.77
2024-02-26T01:04:26.923Z,11.72
2024-02-26T01:06:28.846Z,11.69
2024-02-26T01:08:30.602Z,11.69
2024-02-26T01:10:33.778Z,11.70
2024-02-26T01:12:36.397Z,11.72
2024-02-26T01:14:38.202Z,11.71
2024-02-26T01:16:40.001Z,11.72
2024-02-26T01:18:41.759Z,11.71
2024-02-26T01:20:43.671Z,11.71
2024-02-26T01:22:45.439Z,11.70
2024-02-26T01:24:47.128Z,11.71
2024-02-26T01:26:50.217Z,11.71
2024-02-26T01:28:51.968Z,11.70
2024-02-26T01:30:53.689Z,11.69
2024-02-26T01:32:55.504Z,11.71
2024-02-26T01:34:57.372Z,11.69
2024-02-26T01:36:59.108Z,11.68
2024-02-26T01:39:00.812Z,11.70
2024-02-26T01:41:02.469Z,11.70
2024-02-26T01:43:05.605Z,11.67
2024-02-26T01:45:14.042Z,11.62
2024-02-26T01:47:16.043Z,11.65
2024-02-26T01:49:17.993Z,11.65
2024-02-26T01:51:19.857Z,11.65
2024-02-26T01:53:22.680Z,11.64
2024-02-26T01:55:25.887Z,11.63
2024-02-26T01:57:28.472Z,11.61
2024-02-26T01:59:32.014Z,11.63
2024-02-26T02:01:34.653Z,11.57
2024-02-26T02:03:37.213Z,11.49
2024-02-26T02:05:39.316Z,11.51
2024-02-26T02:07:42.104Z,11.47
2024-02-26T02:09:43.829Z,11.44
2024-02-26T02:11:45.620Z,11.44
2024-02-26T02:13:47.387Z,11.40
2024-02-26T02:15:50.427Z,11.38
2024-02-26T02:17:52.217Z,11.31
2024-02-26T02:19:53.881Z,11.30
2024-02-26T02:21:57.040Z,11.36
2024-02-26T02:23:58.874Z,11.30
2024-02-26T02:26:00.778Z,11.29
2024-02-26T02:28:02.846Z,11.25
2024-02-26T02:30:06.113Z,11.23
2024-02-26T02:32:07.953Z,11.25
2024-02-26T02:34:10.604Z,11.23
2024-02-26T02:36:12.348Z,11.21
2024-02-26T02:38:15.526Z,11.20
2024-02-26T02:40:17.216Z,11.17
2024-02-26T02:42:18.978Z,11.17
2024-02-26T02:44:20.713Z,11.18
2024-02-26T02:46:22.388Z,11.16
2024-02-26T02:48:24.419Z,11.13
2024-02-26T02:50:26.177Z,11.15
2024-02-26T02:52:27.762Z,11.14
2024-02-26T02:54:30.897Z,11.11
2024-02-26T02:56:32.711Z,11.04
2024-02-26T02:58:34.371Z,11.00
2024-02-26T03:00:36.247Z,10.97
2024-02-26T03:02:38.367Z,10.91
2024-02-26T03:04:40.134Z,10.91
2024-02-26T03:06:41.929Z,10.92
2024-02-26T03:08:43.723Z,10.93
2024-02-26T03:10:46.958Z,10.90
2024-02-26T03:12:48.773Z,10.87
2024-02-26T03:14:50.493Z,10.88
2024-02-26T03:16:54.938Z,10.89
2024-02-26T03:18:56.876Z,10.88
2024-02-26T03:20:58.654Z,10.87
2024-02-26T03:23:00.447Z,10.84
2024-02-26T03:25:02.352Z,10.82
2024-02-26T03:27:05.713Z,10.84
2024-02-26T03:29:07.417Z,10.84
2024-02-26T03:31:09.184Z,10.85
2024-02-26T03:33:10.947Z,10.80
2024-02-26T03:35:12.672Z,10.78
2024-02-26T03:37:14.341Z,10.74
2024-02-26T03:39:16.077Z,10.72
2024-02-26T03:41:18.424Z,10.73
2024-02-26T03:43:21.430Z,10.71
2024-02-26T03:45:23.130Z,10.70
2024-02-26T03:47:24.837Z,10.67
2024-02-26T03:49:26.651Z,10.65
2024-02-26T03:51:28.467Z,10.63
2024-02-26T03:53:30.110Z,10.66
2024-02-26T03:55:31.832Z,10.68
2024-02-26T03:57:33.524Z,10.67
2024-02-26T03:59:37.899Z,10.64
2024-02-26T04:01:39.501Z,10.60
2024-02-26T04:03:41.130Z,10.59
2024-02-26T04:05:42.878Z,10.56
2024-02-26T04:07:44.649Z,10.58
2024-02-26T04:09:46.306Z,10.57
2024-02-26T04:11:48.105Z,10.57
2024-02-26T04:13:49.769Z,10.58
2024-02-26T04:15:52.824Z,10.56
2024-02-26T04:17:54.745Z,10.58
2024-02-26T04:19:56.577Z,10.62
2024-02-26T04:21:58.377Z,10.62
2024-02-26T04:24:00.162Z,10.62
2024-02-26T04:26:02.125Z,10.63
2024-02-26T04:28:04.153Z,10.65
2024-02-26T04:30:06.960Z,10.65
2024-02-26T04:32:10.315Z,10.73
2024-02-26T04:34:14.793Z,10.70
2024-02-26T04:36:17.277Z,10.71
2024-02-26T04:38:19.041Z,10.73
2024-02-26T04:40:20.812Z,10.64
2024-02-26T04:42:22.517Z,10.66
2024-02-26T04:44:24.144Z,10.70
2024-02-26T04:46:25.723Z,10.68
2024-02-26T04:48:29.221Z,10.65
2024-02-26T04:50:31.016Z,10.68
2024-02-26T04:52:32.730Z,10.71
2024-02-26T04:54:34.392Z,10.73
2024-02-26T04:56:36.097Z,10.75
2024-02-26T04:58:37.845Z,10.77
2024-02-26T05:00:39.541Z,10.74
2024-02-26T05:02:41.280Z,10.74
2024-02-26T05:04:44.466Z,10.77
2024-02-26T05:06:46.265Z,10.72
2024-02-26T05:08:48.229Z,10.77
2024-02-26T05:10:50.053Z,10.81
2024-02-26T05:12:51.710Z,10.78
2024-02-26T05:14:53.419Z,10.70
2024-02-26T05:16:55.186Z,10.69
2024-02-26T05:18:56.994Z,10.69
2024-02-26T05:21:00.242Z,10.69
2024-02-26T05:23:02.038Z,10.67
2024-02-26T05:25:04.152Z,10.68
2024-02-26T05:27:05.955Z,10.69
2024-02-26T05:29:07.699Z,10.70
2024-02-26T05:31:09.445Z,10.65
2024-02-26T05:33:12.653Z,10.65
2024-02-26T05:35:15.724Z,10.63
2024-02-26T05:37:19.064Z,10.62
2024-02-26T05:39:21.304Z,10.61
2024-02-26T05:41:23.151Z,10.64
2024-02-26T05:43:24.926Z,10.62
2024-02-26T05:45:26.841Z,10.64
2024-02-26T05:47:28.451Z,10.63
2024-02-26T05:49:30.285Z,10.63
2024-02-26T05:51:31.952Z,10.66
2024-02-26T05:53:35.031Z,10.68
2024-02-26T05:55:36.670Z,10.65
2024-02-26T05:57:38.299Z,10.68
2024-02-26T05:59:39.982Z,10.67
2024-02-26T06:01:41.624Z,10.70
2024-02-26T06:03:43.409Z,10.70
2024-02-26T06:05:45.210Z,10.68
2024-02-26T06:07:46.947Z,10.65
2024-02-26T06:09:49.954Z,10.68
2024-02-26T06:11:51.658Z,10.69
2024-02-26T06:13:53.621Z,10.68
2024-02-26T06:15:55.370Z,10.68
2024-02-26T06:17:57.383Z,10.64
2024-02-26T06:19:59.374Z,10.66
2024-02-26T06:22:01.042Z,10.67
2024-02-26T06:24:02.765Z,10.69
2024-02-26T06:26:06.145Z,10.69
2024-02-26T06:28:07.820Z,10.69
2024-02-26T06:30:10.506Z,10.69
2024-02-26T06:32:12.177Z,10.65
2024-02-26T06:34:13.995Z,10.61
2024-02-26T06:36:16.769Z,10.61
2024-02-26T06:38:18.583Z,10.60
2024-02-26T06:40:20.347Z,10.60
2024-02-26T06:42:23.440Z,10.59
2024-02-26T06:44:25.260Z,10.59
2024-02-26T06:46:26.969Z,10.59
2024-02-26T06:48:29.052Z,10.57
2024-02-26T06:50:30.889Z,10.57
2024-02-26T06:52:32.887Z,10.57
2024-02-26T06:54:34.605Z,10.58
2024-02-26T06:56:36.358Z,10.61
2024-02-26T06:58:39.549Z,10.62
2024-02-26T07:00:41.244Z,10.61
2024-02-26T07:02:43.108Z,10.60
2024-02-26T07:04:44.859Z,10.63
2024-02-26T07:06:46.603Z,10.65
2024-02-26T07:08:48.350Z,10.67
2024-02-26T07:10:50.056Z,10.72
2024-02-26T07:12:51.799Z,10.70
2024-02-26T07:14:55.050Z,10.70
2024-02-26T07:16:56.741Z,10.70
2024-02-26T07:18:58.569Z,10.68
2024-02-26T07:21:02.897Z,10.71
2024-02-26T07:23:05.010Z,10.71
2024-02-26T07:25:06.984Z,10.73
2024-02-26T07:27:08.785Z,10.75
2024-02-26T07:29:10.510Z,10.78
2024-02-26T07:31:14.058Z,10.76
2024-02-26T07:33:15.978Z,10.78
2024-02-26T07:35:17.914Z,10.79
2024-02-26T07:37:19.564Z,10.82
2024-02-26T07:39:21.288Z,10.80
2024-02-26T07:41:23.087Z,10.79
2024-02-26T07:43:24.748Z,10.77
2024-02-26T07:45:26.467Z,10.76
2024-02-26T07:47:29.763Z,10.79
2024-02-26T07:49:31.539Z,10.80
2024-02-26T07:51:33.319Z,10.80
2024-02-26T07:53:36.269Z,10.78
2024-02-26T07:55:38.043Z,10.78
2024-02-26T07:57:43.571Z,10.77
2024-02-26T07:59:45.335Z,10.78
2024-02-26T08:01:54.861Z,10.86
2024-02-26T08:04:00.604Z,10.84
2024-02-26T08:06:02.697Z,10.86
2024-02-26T08:08:05.114Z,10.89
2024-02-26T08:10:08.025Z,10.90
2024-02-26T08:12:10.094Z,10.89
2024-02-26T08:14:11.810Z,10.90
2024-02-26T08:16:13.601Z,10.97
2024-02-26T08:18:15.406Z,10.96
2024-02-26T08:20:18.521Z,11.06
2024-02-26T08:22:20.505Z,11.12
2024-02-26T08:24:22.279Z,11.11
2024-02-26T08:26:23.969Z,11.16
2024-02-26T08:28:25.657Z,11.16
2024-02-26T08:30:27.624Z,11.23
2024-02-26T08:32:29.460Z,11.29
2024-02-26T08:34:31.378Z,11.31
2024-02-26T08:36:35.514Z,11.33
2024-02-26T08:38:37.258Z,11.36
2024-02-26T08:40:39.089Z,11.39
2024-02-26T08:42:40.663Z,11.41
2024-02-26T08:44:42.315Z,11.44
2024-02-26T08:46:44.120Z,11.46
2024-02-26T08:48:45.896Z,11.48
2024-02-26T08:50:47.789Z,11.50
2024-02-26T08:52:50.982Z,11.52
2024-02-26T08:54:52.661Z,11.51
2024-02-26T08:56:54.564Z,11.52
2024-02-26T08:58:56.295Z,11.55
2024-02-26T09:00:58.430Z,11.58
2024-02-26T09:03:01.452Z,11.56
2024-02-26T09:05:08.274Z,11.57
2024-02-26T09:07:10.231Z,11.53
2024-02-26T09:09:13.482Z,11.48
2024-02-26T09:11:15.387Z,11.48
2024-02-26T09:13:17.162Z,11.48
2024-02-26T09:15:19.103Z,11.50
2024-02-26T09:17:22.308Z,11.55
2024-02-26T09:19:24.620Z,11.58
2024-02-26T09:21:26.501Z,11.58
2024-02-26T09:23:28.360Z,11.59
2024-02-26T09:25:31.504Z,11.62
2024-02-26T09:27:33.337Z,11.61
2024-02-26T09:29:36.785Z,11.60
2024-02-26T09:31:38.627Z,11.61
2024-02-26T09:33:40.436Z,11.59
2024-02-26T09:35:42.251Z,11.64
2024-02-26T09:37:44.128Z,11.66
2024-02-26T09:39:47.754Z,11.68
2024-02-26T09:41:50.836Z,11.69
2024-02-26T09:43:56.834Z,11.67
2024-02-26T09:45:58.883Z,11.67
2024-02-26T09:48:03.559Z,11.70
2024-02-26T09:50:09.041Z,11.73
2024-02-26T09:52:11.049Z,11.78
2024-02-26T09:54:14.577Z,11.80
2024-02-26T09:56:16.890Z,11.80
2024-02-26T09:58:20.223Z,11.82
2024-02-26T10:00:23.706Z,11.88
2024-02-26T10:02:26.580Z,11.91
2024-02-26T10:04:28.800Z,11.93
2024-02-26T10:06:30.691Z,11.97
2024-02-26T10:08:33.549Z,12.00
2024-02-26T10:10:35.807Z,12.03
2024-02-26T10:12:39.432Z,12.08
2024-02-26T10:14:42.616Z,12.10
2024-02-26T10:16:44.998Z,12.11
2024-02-26T10:18:57.495Z,12.14
2024-02-26T10:21:02.302Z,12.21
2024-02-26T10:23:04.447Z,12.27
2024-02-26T10:25:06.473Z,12.30
2024-02-26T10:27:09.768Z,12.33
2024-02-26T10:29:11.816Z,12.41
2024-02-26T10:31:16.208Z,12.50
2024-02-26T10:33:20.620Z,12.57
2024-02-26T10:35:22.777Z,12.63
2024-02-26T10:37:26.454Z,12.70
2024-02-26T10:39:29.262Z,12.84
2024-02-26T10:41:31.084Z,12.88
2024-02-26T10:43:32.935Z,12.98
2024-02-26T10:45:37.807Z,13.08
2024-02-26T10:47:41.987Z,13.10
2024-02-26T10:49:47.801Z,13.28
2024-02-26T10:51:55.903Z,13.38
2024-02-26T10:54:01.720Z,13.67
2024-02-26T10:56:05.724Z,14.06
2024-02-26T10:58:09.979Z,14.40
2024-02-26T11:00:16.593Z,14.60
2024-02-26T11:02:19.026Z,14.87
2024-02-26T11:04:23.424Z,15.13
2024-02-26T11:06:27.568Z,15.23
2024-02-26T11:08:30.909Z,15.27
2024-02-26T11:10:32.803Z,15.22
2024-02-26T11:12:36.324Z,15.12
2024-02-26T11:14:40.772Z,15.07
2024-02-26T11:16:43.221Z,15.04
2024-02-26T11:18:47.310Z,15.01
2024-02-26T11:20:52.284Z,14.92
2024-02-26T11:22:54.042Z,14.87
2024-02-26T11:24:56.948Z,14.86
2024-02-26T11:27:05.021Z,14.87
2024-02-26T11:29:10.200Z,14.83
2024-02-26T11:31:13.615Z,14.77
2024-02-26T11:33:17.240Z,14.81
2024-02-26T11:35:20.113Z,14.83
2024-02-26T11:37:23.834Z,14.83
2024-02-26T11:39:26.674Z,14.96
2024-02-26T11:41:28.709Z,15.03
2024-02-26T11:43:54.484Z,15.06
2024-02-26T11:45:56.244Z,15.01
2024-02-26T11:47:58.220Z,15.02
2024-02-26T11:50:00.136Z,15.08
2024-02-26T11:52:05.778Z,15.10
2024-02-26T11:54:09.071Z,15.10
2024-02-26T11:56:26.493Z,15.13
2024-02-26T11:58:32.796Z,15.09
2024-02-26T12:00:34.625Z,15.14
2024-02-26T12:02:40.850Z,15.16
2024-02-26T12:04:43.144Z,15.17
2024-02-26T12:06:51.550Z,15.15
2024-02-26T12:08:53.434Z,15.16
2024-02-26T12:10:56.711Z,15.16
2024-02-26T12:13:04.372Z,15.13
2024-02-26T12:15:09.624Z,15.13
2024-02-26T12:17:21.165Z,15.14
2024-02-26T12:19:23.296Z,15.19
2024-02-26T12:21:25.137Z,15.33
2024-02-26T12:23:26.851Z,15.43
2024-02-26T12:25:29.811Z,15.53
2024-02-26T12:27:33.382Z,15.57
2024-02-26T12:29:35.520Z,15.55
2024-02-26T12:31:37.992Z,15.50
2024-02-26T12:33:40.129Z,15.47
2024-02-26T12:35:41.961Z,15.45
2024-02-26T12:37:44.687Z,15.39
2024-02-26T12:39:46.803Z,15.32
2024-02-26T12:41:48.850Z,15.32
2024-02-26T12:43:52.337Z,15.26
2024-02-26T12:45:54.028Z,15.22
2024-02-26T12:47:55.774Z,15.20
2024-02-26T12:49:58.451Z,15.30
2024-02-26T12:52:00.952Z,15.33
2024-02-26T12:54:03.066Z,15.35
2024-02-26T12:56:08.063Z,15.32
2024-02-26T12:58:10.252Z,15.30
2024-02-26T13:00:17.384Z,15.30
2024-02-26T13:02:19.485Z,15.32
2024-02-26T13:04:21.593Z,15.36
2024-02-26T13:06:24.254Z,15.40
2024-02-26T13:08:26.301Z,15.39
2024-02-26T13:10:28.412Z,15.32
2024-02-26T13:12:30.724Z,15.33
2024-02-26T13:14:32.908Z,15.35
2024-02-26T13:16:35.958Z,15.36
2024-02-26T13:18:37.771Z,15.34
2024-02-26T13:20:39.835Z,15.37
2024-02-26T13:22:41.872Z,15.29
2024-02-26T13:24:43.894Z,15.23
2024-02-26T13:26:45.887Z,15.26
2024-02-26T13:28:47.615Z,15.34
2024-02-26T13:30:52.813Z,15.40
2024-02-26T13:33:08.754Z,15.39
2024-02-26T13:35:12.182Z,15.33
2024-02-26T13:37:14.012Z,15.20
2024-02-26T13:39:22.977Z,15.23
2024-02-26T13:41:25.023Z,15.24
2024-02-26T13:43:26.822Z,15.25
2024-02-26T13:45:32.045Z,15.22
2024-02-26T13:47:34.598Z,15.18
2024-02-26T13:49:37.729Z,15.10
2024-02-26T13:51:40.423Z,15.18
2024-02-26T13:53:42.274Z,15.18
2024-02-26T13:55:44.041Z,15.12
2024-02-26T13:57:46.110Z,15.13
2024-02-26T13:59:48.042Z,15.15
2024-02-26T14:01:49.712Z,15.14
2024-02-26T14:03:51.627Z,15.22
2024-02-26T14:05:55.150Z,15.39
2024-02-26T14:07:57.099Z,15.46
2024-02-26T14:09:59.617Z,15.45
2024-02-26T14:12:01.676Z,15.53
2024-02-26T14:14:03.864Z,15.57
2024-02-26T14:16:06.035Z,15.62
2024-02-26T14:18:08.518Z,15.65
2024-02-26T14:20:11.107Z,15.56
2024-02-26T14:22:14.909Z,15.57
2024-02-26T14:24:16.865Z,15.58
2024-02-26T14:26:19.212Z,15.46
2024-02-26T14:28:25.650Z,15.37
2024-02-26T14:30:31.329Z,15.39
2024-02-26T14:32:33.203Z,15.53
2024-02-26T14:34:35.280Z,15.41
2024-02-26T14:36:37.277Z,15.38
2024-02-26T14:38:40.594Z,15.30
2024-02-26T14:40:44.911Z,15.31
2024-02-26T14:42:47.000Z,15.33
2024-02-26T14:44:49.183Z,15.25
2024-02-26T14:46:51.100Z,15.26
2024-02-26T14:48:53.062Z,15.18
2024-02-26T14:50:56.012Z,15.10
2024-02-26T14:52:59.647Z,15.11
2024-02-26T14:55:03.369Z,15.12
2024-02-26T14:57:06.361Z,15.15
2024-02-26T14:59:08.679Z,15.13
2024-02-26T15:01:10.596Z,15.13
2024-02-26T15:03:12.516Z,15.14
2024-02-26T15:05:15.153Z,15.15
2024-02-26T15:07:17.487Z,15.15
2024-02-26T15:09:19.638Z,15.18
2024-02-26T15:11:23.429Z,15.19
2024-02-26T15:13:26.807Z,15.28
2024-02-26T15:15:28.633Z,15.24
2024-02-26T15:17:30.519Z,15.30
2024-02-26T15:19:33.254Z,15.36
2024-02-26T15:21:35.338Z,15.37
2024-02-26T15:23:37.210Z,15.27
2024-02-26T15:25:41.158Z,15.26
2024-02-26T15:27:44.926Z,15.25
2024-02-26T15:29:47.089Z,15.29
2024-02-26T15:31:50.797Z,15.33
2024-02-26T15:33:54.323Z,15.32
2024-02-26T15:35:56.350Z,15.31
2024-02-26T15:37:58.957Z,15.28
2024-02-26T15:40:01.030Z,15.27
2024-02-26T15:42:03.004Z,15.27
2024-02-26T15:44:07.851Z,15.25
2024-02-26T15:46:10.161Z,15.25
2024-02-26T15:48:12.088Z,15.28
2024-02-26T15:50:14.156Z,15.27
2024-02-26T15:52:15.921Z,15.33
2024-02-26T15:54:17.693Z,15.29
2024-02-26T15:56:19.857Z,15.23
2024-02-26T15:58:22.081Z,15.23
2024-02-26T16:00:25.936Z,15.21
2024-02-26T16:02:29.338Z,15.17
2024-02-26T16:04:31.465Z,15.14
2024-02-26T16:06:39.064Z,15.11
2024-02-26T16:08:41.470Z,15.09
2024-02-26T16:10:44.570Z,15.07
2024-02-26T16:12:51.254Z,15.07
2024-02-26T16:14:53.155Z,15.06
2024-02-26T16:17:01.824Z,15.09
2024-02-26T16:19:12.869Z,15.06
2024-02-26T16:21:14.921Z,15.01
2024-02-26T16:23:17.309Z,15.01
2024-02-26T16:25:19.322Z,15.02
2024-02-26T16:27:21.191Z,14.99
2024-02-26T16:29:23.312Z,15.00
2024-02-26T16:31:25.397Z,15.02
2024-02-26T16:33:28.759Z,14.98
2024-02-26T16:35:32.093Z,14.98
2024-02-26T16:37:34.933Z,14.94
2024-02-26T16:39:37.477Z,14.93
2024-02-26T16:41:39.324Z,14.90
2024-02-26T16:43:41.299Z,14.87
2024-02-26T16:45:43.230Z,14.84
2024-02-26T16:47:45.023Z,14.81
2024-02-26T16:49:48.382Z,14.78
2024-02-26T16:51:50.100Z,14.75
2024-02-26T16:53:52.304Z,14.73
2024-02-26T16:55:54.060Z,14.70
2024-02-26T16:57:55.907Z,14.66
2024-02-26T16:59:57.871Z,14.64
2024-02-26T17:01:59.688Z,14.64
2024-02-26T17:04:01.386Z,14.63
2024-02-26T17:06:05.059Z,14.54
2024-02-26T17:08:07.261Z,14.46
2024-02-26T17:10:09.241Z,14.41
2024-02-26T17:12:11.088Z,14.37
2024-02-26T17:14:13.460Z,14.37
2024-02-26T17:16:15.198Z,14.27
2024-02-26T17:18:16.957Z,14.24
2024-02-26T17:20:18.818Z,14.22
2024-02-26T17:22:21.910Z,14.17
2024-02-26T17:24:23.759Z,14.08
2024-02-26T17:26:25.874Z,13.99
2024-02-26T17:28:27.698Z,13.92
2024-02-26T17:30:29.841Z,13.91
2024-02-26T17:32:31.909Z,13.92
2024-02-26T17:34:33.779Z,13.87
2024-02-26T17:36:36.332Z,13.84
2024-02-26T17:38:39.753Z,13.82
2024-02-26T17:40:41.796Z,13.73
2024-02-26T17:42:44.142Z,13.67
2024-02-26T17:44:46.442Z,13.68
2024-02-26T17:46:48.403Z,13.67
2024-02-26T17:48:50.320Z,13.61
2024-02-26T17:50:52.820Z,13.57
2024-02-26T17:52:54.536Z,13.55
2024-02-26T17:54:57.771Z,13.59
2024-02-26T17:56:59.740Z,13.54
2024-02-26T17:59:02.242Z,13.50
2024-02-26T18:01:04.388Z,13.55
2024-02-26T18:03:06.183Z,13.61
2024-02-26T18:05:08.706Z,13.44
2024-02-26T18:07:12.341Z,13.34
2024-02-26T18:09:14.329Z,13.27
2024-02-26T18:11:17.784Z,13.29
2024-02-26T18:13:20.255Z,13.28
2024-02-26T18:15:22.740Z,13.25
2024-02-26T18:17:27.785Z,13.31
2024-02-26T18:19:29.575Z,13.24
2024-02-26T18:21:31.610Z,13.20
2024-02-26T18:23:33.929Z,13.19
2024-02-26T18:25:35.815Z,13.10
2024-02-26T18:27:40.259Z,13.16
2024-02-26T18:29:41.890Z,13.23
2024-02-26T18:31:44.042Z,13.29
2024-02-26T18:33:46.211Z,13.31
2024-02-26T18:35:48.333Z,13.29
2024-02-26T18:37:50.029Z,13.30
2024-02-26T18:39:51.762Z,13.28
2024-02-26T18:41:53.595Z,13.30
2024-02-26T18:43:56.751Z,13.31
2024-02-26T18:45:58.801Z,13.37
2024-02-26T18:48:00.903Z,13.40
2024-02-26T18:50:02.933Z,13.45
2024-02-26T18:52:05.238Z,13.45
2024-02-26T18:54:07.208Z,13.46
2024-02-26T18:56:09.317Z,13.45
2024-02-26T18:58:11.533Z,13.47
2024-02-26T19:00:15.753Z,13.48
2024-02-26T19:02:17.603Z,13.48
2024-02-26T19:04:19.691Z,13.49
2024-02-26T19:06:21.976Z,13.49
2024-02-26T19:08:25.190Z,13.46
2024-02-26T19:10:29.301Z,13.46
2024-02-26T19:12:31.560Z,13.47
2024-02-26T19:14:33.675Z,13.49
2024-02-26T19:16:37.707Z,13.44
2024-02-26T19:18:42.923Z,13.44
2024-02-26T19:20:45.958Z,13.41
2024-02-26T19:22:49.075Z,13.44
2024-02-26T19:24:51.362Z,13.41
2024-02-26T19:26:53.686Z,13.40
2024-02-26T19:28:55.835Z,13.40
2024-02-26T19:30:58.030Z,13.40
2024-02-26T19:33:01.809Z,13.41
2024-02-26T19:35:04.824Z,13.42
2024-02-26T19:37:06.797Z,13.41
2024-02-26T19:39:08.882Z,13.39
2024-02-26T19:41:11.202Z,13.39
2024-02-26T19:43:12.997Z,13.37
2024-02-26T19:45:15.048Z,13.36
2024-02-26T19:47:17.078Z,13.33
2024-02-26T19:49:20.316Z,13.32
2024-02-26T19:51:22.462Z,13.30
2024-02-26T19:53:25.024Z,13.27
2024-02-26T19:55:27.574Z,13.27
2024-02-26T19:57:29.505Z,13.24
2024-02-26T19:59:32.283Z,13.26
2024-02-26T20:01:35.677Z,13.23
2024-02-26T20:03:37.599Z,13.23
2024-02-26T20:05:41.002Z,13.21
2024-02-26T20:07:42.833Z,13.17
2024-02-26T20:09:44.675Z,13.16
2024-02-26T20:11:46.953Z,13.16
2024-02-26T20:13:48.805Z,13.14
2024-02-26T20:15:51.374Z,13.12
2024-02-26T20:17:53.377Z,13.09
2024-02-26T20:19:55.589Z,13.07
2024-02-26T20:21:58.945Z,13.03
2024-02-26T20:24:00.835Z,13.00
2024-02-26T20:26:02.792Z,12.94
2024-02-26T20:28:05.681Z,12.90
2024-02-26T20:30:08.386Z,12.87
2024-02-26T20:32:10.556Z,12.85
2024-02-26T20:34:12.411Z,12.79
2024-02-26T20:36:14.361Z,12.79
2024-02-26T20:38:17.613Z,12.79
2024-02-26T20:40:19.655Z,12.85
2024-02-26T20:42:22.192Z,12.87
2024-02-26T20:44:24.298Z,12.89
2024-02-26T20:46:26.365Z,12.93
2024-02-26T20:48:28.655Z,12.92
2024-02-26T20:50:30.775Z,12.88
2024-02-26T20:52:32.582Z,12.80
2024-02-26T20:54:35.914Z,12.79
2024-02-26T20:56:37.775Z,12.83
2024-02-26T20:58:39.602Z,12.84
2024-02-26T21:00:42.568Z,12.79
2024-02-26T21:02:44.459Z,12.77
2024-02-26T21:04:46.340Z,12.72
2024-02-26T21:06:48.411Z,12.68
2024-02-26T21:08:50.089Z,12.64
2024-02-26T21:10:53.164Z,12.60
2024-02-26T21:12:54.984Z,12.61
2024-02-26T21:14:57.024Z,12.57
2024-02-26T21:16:59.161Z,12.56
2024-02-26T21:19:01.171Z,12.57
2024-02-26T21:21:03.343Z,12.59
2024-02-26T21:23:05.261Z,12.56
2024-02-26T21:25:07.446Z,12.55
2024-02-26T21:27:10.674Z,12.57
2024-02-26T21:29:12.442Z,12.52
2024-02-26T21:31:14.353Z,12.45
2024-02-26T21:33:16.356Z,12.43
2024-02-26T21:35:18.402Z,12.37
2024-02-26T21:37:20.400Z,12.37
2024-02-26T21:39:22.192Z,12.32
2024-02-26T21:41:24.370Z,12.33
2024-02-26T21:43:27.438Z,12.34
2024-02-26T21:45:29.372Z,12.39
2024-02-26T21:47:31.248Z,12.40
2024-02-26T21:49:33.266Z,12.39
2024-02-26T21:51:35.320Z,12.35
2024-02-26T21:53:37.470Z,12.34
2024-02-26T21:55:39.999Z,12.35
2024-02-26T21:57:42.030Z,12.36
2024-02-26T21:59:45.595Z,12.36
2024-02-26T22:01:47.537Z,12.31
2024-02-26T22:03:49.679Z,12.32
2024-02-26T22:05:51.593Z,12.35
2024-02-26T22:07:53.637Z,12.29
2024-02-26T22:09:55.629Z,12.25
2024-02-26T22:11:57.617Z,12.26
2024-02-26T22:13:59.472Z,12.27
2024-02-26T22:16:02.843Z,12.26
2024-02-26T22:18:04.897Z,12.27
2024-02-26T22:20:07.797Z,12.30
2024-02-26T22:22:09.884Z,12.32
2024-02-26T22:24:11.721Z,12.33
2024-02-26T22:26:13.820Z,12.34
2024-02-26T22:28:15.541Z,12.38
2024-02-26T22:30:17.749Z,12.38
2024-02-26T22:32:21.084Z,12.38
2024-02-26T22:34:23.065Z,12.40
2024-02-26T22:36:24.864Z,12.41
2024-02-26T22:38:26.654Z,12.40
2024-02-26T22:40:28.350Z,12.39
2024-02-26T22:42:30.059Z,12.41
2024-02-26T22:44:31.928Z,12.42
2024-02-26T22:46:33.879Z,12.43
2024-02-26T22:48:37.179Z,12.41
2024-02-26T22:50:39.054Z,12.39
2024-02-26T22:52:41.219Z,12.38
2024-02-26T22:54:43.057Z,12.40
2024-02-26T22:56:44.801Z,12.39
2024-02-26T22:58:46.560Z,12.40
2024-02-26T23:00:48.449Z,12.37
2024-02-26T23:02:50.516Z,12.38
2024-02-26T23:04:53.699Z,12.33
2024-02-26T23:06:55.558Z,12.32
2024-02-26T23:08:57.480Z,12.31
2024-02-26T23:10:59.226Z,12.29
2024-02-26T23:13:01.357Z,12.28
2024-02-26T23:15:03.718Z,12.27
2024-02-26T23:17:05.407Z,12.26
2024-02-26T23:19:07.211Z,12.24
2024-02-26T23:21:13.609Z,12.23
2024-02-26T23:23:15.481Z,12.17
2024-02-26T23:25:19.286Z,12.18
2024-02-26T23:27:21.151Z,12.14
2024-02-26T23:29:23.081Z,12.14
2024-02-26T23:31:24.803Z,12.12
2024-02-26T23:33:26.609Z,12.09
2024-02-26T23:35:28.437Z,12.07
2024-02-26T23:37:31.564Z,12.07
2024-02-26T23:39:33.265Z,12.03
2024-02-26T23:41:35.016Z,12.04
2024-02-26T23:43:36.794Z,12.02
2024-02-26T23:45:38.732Z,12.01
2024-02-26T23:47:42.571Z,12.00
2024-02-26T23:49:49.359Z,11.98
